sensor_id;sensor_type;location;lat;lon;timestamp;P1;durP1;ratioP1;P2;durP2;ratioP2
3939;SDS011;1984;48.312;9.244;2023-12-07T00:00:17;12.40;;;5.03;;
3939;SDS011;1984;48.312;9.244;2023-12-07T00:02:42;10.03;;;5.53;;
3939;SDS011;1984;48.312;9.244;2023-12-07T00:05:08;8.93;;;5.03;;
3939;SDS011;1984;48.312;9.244;2023-12-07T00:07:33;8.60;;;5.80;;
3939;SDS011;1984;48.312;9.244;2023-12-07T00:09:59;9.30;;;5.33;;
3939;SDS011;1984;48.312;9.244;2023-12-07T00:12:24;6.90;;;4.70;;
3939;SDS011;1984;48.312;9.244;2023-12-07T00:14:50;5.50;;;4.20;;
3939;SDS011;1984;48.312;9.244;2023-12-07T00:17:16;6.30;;;4.30;;
3939;SDS011;1984;48.312;9.244;2023-12-07T00:19:41;4.80;;;4.30;;
3939;SDS011;1984;48.312;9.244;2023-12-07T00:22:07;4.63;;;4.10;;
3939;SDS011;1984;48.312;9.244;2023-12-07T00:24:32;7.97;;;4.00;;
3939;SDS011;1984;48.312;9.244;2023-12-07T00:26:58;7.23;;;4.23;;
3939;SDS011;1984;48.312;9.244;2023-12-07T00:29:23;6.17;;;5.00;;
3939;SDS011;1984;48.312;9.244;2023-12-07T00:31:49;7.73;;;4.77;;
3939;SDS011;1984;48.312;9.244;2023-12-07T00:34:14;9.47;;;5.10;;
3939;SDS011;1984;48.312;9.244;2023-12-07T00:36:42;5.90;;;4.93;;
3939;SDS011;1984;48.312;9.244;2023-12-07T00:39:07;7.67;;;5.23;;
3939;SDS011;1984;48.312;9.244;2023-12-07T00:41:33;24.23;;;6.20;;
3939;SDS011;1984;48.312;9.244;2023-12-07T00:43:59;10.90;;;6.90;;
3939;SDS011;1984;48.312;9.244;2023-12-07T00:46:24;6.90;;;4.73;;
3939;SDS011;1984;48.312;9.244;2023-12-07T00:48:50;5.80;;;4.03;;
3939;SDS011;1984;48.312;9.244;2023-12-07T00:51:15;7.53;;;4.20;;
3939;SDS011;1984;48.312;9.244;2023-12-07T00:53:41;4.97;;;4.13;;
3939;SDS011;1984;48.312;9.244;2023-12-07T00:56:07;6.50;;;4.00;;
3939;SDS011;1984;48.312;9.244;2023-12-07T00:58:32;7.00;;;5.00;;
3939;SDS011;1984;48.312;9.244;2023-12-07T01:00:58;5.50;;;4.50;;
3939;SDS011;1984;48.312;9.244;2023-12-07T01:03:23;5.10;;;4.10;;
3939;SDS011;1984;48.312;9.244;2023-12-07T01:05:49;4.53;;;4.10;;
3939;SDS011;1984;48.312;9.244;2023-12-07T01:08:14;7.60;;;3.70;;
3939;SDS011;1984;48.312;9.244;2023-12-07T01:10:40;6.17;;;4.20;;
3939;SDS011;1984;48.312;9.244;2023-12-07T01:13:05;5.70;;;3.70;;
3939;SDS011;1984;48.312;9.244;2023-12-07T01:15:31;7.87;;;5.43;;
3939;SDS011;1984;48.312;9.244;2023-12-07T01:17:56;11.00;;;4.80;;
3939;SDS011;1984;48.312;9.244;2023-12-07T01:20:22;5.37;;;4.50;;
3939;SDS011;1984;48.312;9.244;2023-12-07T01:22:47;5.83;;;4.30;;
3939;SDS011;1984;48.312;9.244;2023-12-07T01:25:13;7.43;;;4.60;;
3939;SDS011;1984;48.312;9.244;2023-12-07T01:27:44;23.47;;;6.00;;
3939;SDS011;1984;48.312;9.244;2023-12-07T01:30:10;12.50;;;5.87;;
3939;SDS011;1984;48.312;9.244;2023-12-07T01:32:36;6.93;;;4.53;;
3939;SDS011;1984;48.312;9.244;2023-12-07T01:35:01;8.93;;;4.93;;
3939;SDS011;1984;48.312;9.244;2023-12-07T01:37:27;9.97;;;5.37;;
3939;SDS011;1984;48.312;9.244;2023-12-07T01:39:54;31.63;;;6.13;;
3939;SDS011;1984;48.312;9.244;2023-12-07T01:42:19;13.33;;;5.17;;
3939;SDS011;1984;48.312;9.244;2023-12-07T01:44:45;13.27;;;6.67;;
3939;SDS011;1984;48.312;9.244;2023-12-07T01:47:10;158.67;;;8.67;;
3939;SDS011;1984;48.312;9.244;2023-12-07T01:49:36;53.10;;;7.53;;
3939;SDS011;1984;48.312;9.244;2023-12-07T01:52:03;85.97;;;6.87;;
3939;SDS011;1984;48.312;9.244;2023-12-07T01:54:29;98.17;;;6.30;;
3939;SDS011;1984;48.312;9.244;2023-12-07T01:56:55;22.53;;;5.03;;
3939;SDS011;1984;48.312;9.244;2023-12-07T01:59:21;48.13;;;5.40;;
3939;SDS011;1984;48.312;9.244;2023-12-07T02:01:47;20.93;;;4.93;;
3939;SDS011;1984;48.312;9.244;2023-12-07T02:04:13;18.00;;;4.70;;
3939;SDS011;1984;48.312;9.244;2023-12-07T02:06:39;11.80;;;4.30;;
3939;SDS011;1984;48.312;9.244;2023-12-07T02:09:04;6.90;;;4.27;;
3939;SDS011;1984;48.312;9.244;2023-12-07T02:11:30;40.00;;;5.67;;
3939;SDS011;1984;48.312;9.244;2023-12-07T02:13:56;22.20;;;4.20;;
3939;SDS011;1984;48.312;9.244;2023-12-07T02:16:35;51.67;;;4.97;;
3939;SDS011;1984;48.312;9.244;2023-12-07T02:22:02;26.37;;;5.33;;
3939;SDS011;1984;48.312;9.244;2023-12-07T02:24:34;5.40;;;4.00;;
3939;SDS011;1984;48.312;9.244;2023-12-07T02:27:05;16.03;;;4.73;;
3939;SDS011;1984;48.312;9.244;2023-12-07T02:29:30;40.50;;;4.57;;
3939;SDS011;1984;48.312;9.244;2023-12-07T02:31:56;46.23;;;5.20;;
3939;SDS011;1984;48.312;9.244;2023-12-07T02:34:21;10.43;;;4.07;;
3939;SDS011;1984;48.312;9.244;2023-12-07T02:36:47;31.43;;;4.93;;
3939;SDS011;1984;48.312;9.244;2023-12-07T02:39:15;29.30;;;3.80;;
3939;SDS011;1984;48.312;9.244;2023-12-07T02:41:41;7.03;;;4.20;;
3939;SDS011;1984;48.312;9.244;2023-12-07T02:44:10;7.37;;;4.53;;
3939;SDS011;1984;48.312;9.244;2023-12-07T02:46:35;13.37;;;3.83;;
3939;SDS011;1984;48.312;9.244;2023-12-07T02:49:02;6.30;;;3.40;;
3939;SDS011;1984;48.312;9.244;2023-12-07T02:51:28;23.67;;;4.23;;
3939;SDS011;1984;48.312;9.244;2023-12-07T02:53:53;24.20;;;4.50;;
3939;SDS011;1984;48.312;9.244;2023-12-07T02:56:19;18.80;;;5.53;;
3939;SDS011;1984;48.312;9.244;2023-12-07T02:58:44;8.57;;;4.27;;
3939;SDS011;1984;48.312;9.244;2023-12-07T03:01:09;45.90;;;4.60;;
3939;SDS011;1984;48.312;9.244;2023-12-07T03:03:35;11.33;;;4.93;;
3939;SDS011;1984;48.312;9.244;2023-12-07T03:06:03;58.60;;;5.43;;
3939;SDS011;1984;48.312;9.244;2023-12-07T03:08:29;21.63;;;5.47;;
3939;SDS011;1984;48.312;9.244;2023-12-07T03:10:54;30.00;;;4.53;;
3939;SDS011;1984;48.312;9.244;2023-12-07T03:13:20;31.57;;;5.87;;
3939;SDS011;1984;48.312;9.244;2023-12-07T03:15:45;17.27;;;4.90;;
3939;SDS011;1984;48.312;9.244;2023-12-07T03:18:11;39.90;;;5.93;;
3939;SDS011;1984;48.312;9.244;2023-12-07T03:20:36;32.73;;;5.37;;
3939;SDS011;1984;48.312;9.244;2023-12-07T03:23:02;11.37;;;5.63;;
3939;SDS011;1984;48.312;9.244;2023-12-07T03:25:27;10.03;;;6.20;;
3939;SDS011;1984;48.312;9.244;2023-12-07T03:27:53;11.23;;;5.67;;
3939;SDS011;1984;48.312;9.244;2023-12-07T03:30:18;13.63;;;4.77;;
3939;SDS011;1984;48.312;9.244;2023-12-07T03:32:44;13.10;;;4.10;;
3939;SDS011;1984;48.312;9.244;2023-12-07T03:35:09;9.00;;;4.20;;
3939;SDS011;1984;48.312;9.244;2023-12-07T03:37:35;6.87;;;4.60;;
3939;SDS011;1984;48.312;9.244;2023-12-07T03:40:01;23.47;;;4.80;;
3939;SDS011;1984;48.312;9.244;2023-12-07T03:42:29;7.70;;;4.57;;
3939;SDS011;1984;48.312;9.244;2023-12-07T03:44:54;7.07;;;4.97;;
3939;SDS011;1984;48.312;9.244;2023-12-07T03:47:20;17.17;;;4.67;;
3939;SDS011;1984;48.312;9.244;2023-12-07T03:49:45;8.67;;;5.57;;
3939;SDS011;1984;48.312;9.244;2023-12-07T03:52:11;9.67;;;5.17;;
3939;SDS011;1984;48.312;9.244;2023-12-07T03:54:36;8.97;;;4.77;;
3939;SDS011;1984;48.312;9.244;2023-12-07T03:57:02;11.87;;;5.80;;
3939;SDS011;1984;48.312;9.244;2023-12-07T03:59:29;31.13;;;5.23;;
3939;SDS011;1984;48.312;9.244;2023-12-07T04:01:55;12.13;;;5.70;;
3939;SDS011;1984;48.312;9.244;2023-12-07T04:04:20;12.00;;;5.80;;
3939;SDS011;1984;48.312;9.244;2023-12-07T04:06:46;9.80;;;4.70;;
3939;SDS011;1984;48.312;9.244;2023-12-07T04:09:11;11.90;;;5.60;;
3939;SDS011;1984;48.312;9.244;2023-12-07T04:11:37;11.10;;;5.77;;
3939;SDS011;1984;48.312;9.244;2023-12-07T04:14:02;9.00;;;5.03;;
3939;SDS011;1984;48.312;9.244;2023-12-07T04:16:28;9.13;;;4.30;;
3939;SDS011;1984;48.312;9.244;2023-12-07T04:18:53;11.43;;;5.83;;
3939;SDS011;1984;48.312;9.244;2023-12-07T04:21:19;26.90;;;10.50;;
3939;SDS011;1984;48.312;9.244;2023-12-07T04:23:44;24.50;;;10.87;;
3939;SDS011;1984;48.312;9.244;2023-12-07T04:26:10;22.33;;;8.43;;
3939;SDS011;1984;48.312;9.244;2023-12-07T04:28:35;18.27;;;8.20;;
3939;SDS011;1984;48.312;9.244;2023-12-07T04:31:01;19.33;;;7.97;;
3939;SDS011;1984;48.312;9.244;2023-12-07T04:33:27;13.23;;;5.90;;
3939;SDS011;1984;48.312;9.244;2023-12-07T04:35:53;10.27;;;5.27;;
3939;SDS011;1984;48.312;9.244;2023-12-07T04:38:19;11.43;;;4.67;;
3939;SDS011;1984;48.312;9.244;2023-12-07T04:40:44;9.53;;;4.10;;
3939;SDS011;1984;48.312;9.244;2023-12-07T04:43:10;9.00;;;4.40;;
3939;SDS011;1984;48.312;9.244;2023-12-07T04:45:35;10.30;;;3.83;;
3939;SDS011;1984;48.312;9.244;2023-12-07T04:48:00;11.43;;;5.70;;
3939;SDS011;1984;48.312;9.244;2023-12-07T04:50:27;16.10;;;4.73;;
3939;SDS011;1984;48.312;9.244;2023-12-07T04:52:52;7.57;;;3.37;;
3939;SDS011;1984;48.312;9.244;2023-12-07T04:55:19;4.93;;;2.90;;
3939;SDS011;1984;48.312;9.244;2023-12-07T04:57:45;4.30;;;3.23;;
3939;SDS011;1984;48.312;9.244;2023-12-07T05:00:11;7.50;;;3.17;;
3939;SDS011;1984;48.312;9.244;2023-12-07T05:02:38;5.33;;;3.80;;
3939;SDS011;1984;48.312;9.244;2023-12-07T05:05:04;4.27;;;2.50;;
3939;SDS011;1984;48.312;9.244;2023-12-07T05:07:30;2.93;;;2.63;;
3939;SDS011;1984;48.312;9.244;2023-12-07T05:09:55;2.97;;;2.73;;
3939;SDS011;1984;48.312;9.244;2023-12-07T05:12:21;3.10;;;2.27;;
3939;SDS011;1984;48.312;9.244;2023-12-07T05:14:46;7.00;;;3.20;;
3939;SDS011;1984;48.312;9.244;2023-12-07T05:17:12;4.53;;;3.50;;
3939;SDS011;1984;48.312;9.244;2023-12-07T05:19:37;11.13;;;5.53;;
3939;SDS011;1984;48.312;9.244;2023-12-07T05:22:03;10.00;;;5.90;;
3939;SDS011;1984;48.312;9.244;2023-12-07T05:24:28;9.33;;;4.43;;
3939;SDS011;1984;48.312;9.244;2023-12-07T05:26:57;5.83;;;3.30;;
3939;SDS011;1984;48.312;9.244;2023-12-07T05:29:22;7.60;;;4.13;;
3939;SDS011;1984;48.312;9.244;2023-12-07T05:31:48;5.93;;;3.63;;
3939;SDS011;1984;48.312;9.244;2023-12-07T05:34:15;10.80;;;5.40;;
3939;SDS011;1984;48.312;9.244;2023-12-07T05:36:41;14.90;;;6.40;;
3939;SDS011;1984;48.312;9.244;2023-12-07T05:39:07;11.03;;;4.83;;
3939;SDS011;1984;48.312;9.244;2023-12-07T05:41:32;4.83;;;3.60;;
3939;SDS011;1984;48.312;9.244;2023-12-07T05:43:58;6.60;;;4.20;;
3939;SDS011;1984;48.312;9.244;2023-12-07T05:46:23;4.93;;;3.57;;
3939;SDS011;1984;48.312;9.244;2023-12-07T05:48:49;3.77;;;3.40;;
3939;SDS011;1984;48.312;9.244;2023-12-07T05:51:17;4.80;;;3.90;;
3939;SDS011;1984;48.312;9.244;2023-12-07T05:53:43;5.27;;;3.50;;
3939;SDS011;1984;48.312;9.244;2023-12-07T05:56:09;5.87;;;3.37;;
3939;SDS011;1984;48.312;9.244;2023-12-07T05:58:35;13.60;;;2.47;;
3939;SDS011;1984;48.312;9.244;2023-12-07T06:01:01;3.43;;;3.20;;
3939;SDS011;1984;48.312;9.244;2023-12-07T06:03:27;4.00;;;2.43;;
3939;SDS011;1984;48.312;9.244;2023-12-07T06:05:53;2.43;;;2.20;;
3939;SDS011;1984;48.312;9.244;2023-12-07T06:08:19;3.13;;;2.70;;
3939;SDS011;1984;48.312;9.244;2023-12-07T06:10:45;2.03;;;1.90;;
3939;SDS011;1984;48.312;9.244;2023-12-07T06:13:10;2.40;;;2.07;;
3939;SDS011;1984;48.312;9.244;2023-12-07T06:15:37;2.20;;;2.00;;
3939;SDS011;1984;48.312;9.244;2023-12-07T06:18:03;3.43;;;2.10;;
3939;SDS011;1984;48.312;9.244;2023-12-07T06:20:28;3.63;;;2.30;;
3939;SDS011;1984;48.312;9.244;2023-12-07T06:22:54;2.87;;;2.07;;
3939;SDS011;1984;48.312;9.244;2023-12-07T06:25:19;2.60;;;2.07;;
3939;SDS011;1984;48.312;9.244;2023-12-07T06:27:45;1.77;;;1.67;;
3939;SDS011;1984;48.312;9.244;2023-12-07T06:30:11;1.47;;;1.37;;
3939;SDS011;1984;48.312;9.244;2023-12-07T06:32:37;2.40;;;2.20;;
3939;SDS011;1984;48.312;9.244;2023-12-07T06:35:03;2.43;;;2.20;;
3939;SDS011;1984;48.312;9.244;2023-12-07T06:37:32;2.70;;;1.87;;
3939;SDS011;1984;48.312;9.244;2023-12-07T06:39:58;6.10;;;2.23;;
3939;SDS011;1984;48.312;9.244;2023-12-07T06:42:25;4.57;;;2.33;;
3939;SDS011;1984;48.312;9.244;2023-12-07T06:44:51;2.17;;;1.97;;
3939;SDS011;1984;48.312;9.244;2023-12-07T06:47:16;1.87;;;1.70;;
3939;SDS011;1984;48.312;9.244;2023-12-07T06:49:43;2.40;;;2.03;;
3939;SDS011;1984;48.312;9.244;2023-12-07T06:52:08;2.00;;;1.80;;
3939;SDS011;1984;48.312;9.244;2023-12-07T06:54:35;4.03;;;2.93;;
3939;SDS011;1984;48.312;9.244;2023-12-07T06:57:01;2.20;;;2.00;;
3939;SDS011;1984;48.312;9.244;2023-12-07T06:59:27;1.97;;;1.87;;
3939;SDS011;1984;48.312;9.244;2023-12-07T07:01:53;1.70;;;1.60;;
3939;SDS011;1984;48.312;9.244;2023-12-07T07:04:19;2.20;;;1.93;;
3939;SDS011;1984;48.312;9.244;2023-12-07T07:06:44;3.23;;;2.27;;
3939;SDS011;1984;48.312;9.244;2023-12-07T07:09:10;2.20;;;2.00;;
3939;SDS011;1984;48.312;9.244;2023-12-07T07:11:37;2.00;;;1.90;;
3939;SDS011;1984;48.312;9.244;2023-12-07T07:14:03;2.20;;;2.00;;
3939;SDS011;1984;48.312;9.244;2023-12-07T07:16:29;2.77;;;1.80;;
3939;SDS011;1984;48.312;9.244;2023-12-07T07:18:55;2.50;;;2.20;;
3939;SDS011;1984;48.312;9.244;2023-12-07T07:21:20;2.83;;;2.00;;
3939;SDS011;1984;48.312;9.244;2023-12-07T07:23:46;3.50;;;2.27;;
3939;SDS011;1984;48.312;9.244;2023-12-07T07:26:12;1.70;;;1.60;;
3939;SDS011;1984;48.312;9.244;2023-12-07T07:28:41;4.90;;;1.80;;
3939;SDS011;1984;48.312;9.244;2023-12-07T07:31:07;2.17;;;1.97;;
3939;SDS011;1984;48.312;9.244;2023-12-07T07:33:33;2.43;;;1.73;;
3939;SDS011;1984;48.312;9.244;2023-12-07T07:35:58;2.97;;;2.00;;
3939;SDS011;1984;48.312;9.244;2023-12-07T07:38:24;1.57;;;1.47;;
3939;SDS011;1984;48.312;9.244;2023-12-07T07:40:49;4.90;;;1.93;;
3939;SDS011;1984;48.312;9.244;2023-12-07T07:43:15;3.20;;;2.40;;
3939;SDS011;1984;48.312;9.244;2023-12-07T07:45:40;4.47;;;2.60;;
3939;SDS011;1984;48.312;9.244;2023-12-07T07:48:06;9.70;;;3.00;;
3939;SDS011;1984;48.312;9.244;2023-12-07T07:50:32;4.07;;;2.90;;
3939;SDS011;1984;48.312;9.244;2023-12-07T07:53:00;3.30;;;2.47;;
3939;SDS011;1984;48.312;9.244;2023-12-07T07:55:26;3.77;;;2.80;;
3939;SDS011;1984;48.312;9.244;2023-12-07T07:57:52;2.30;;;2.10;;
3939;SDS011;1984;48.312;9.244;2023-12-07T08:00:17;2.90;;;2.70;;
3939;SDS011;1984;48.312;9.244;2023-12-07T08:02:44;4.43;;;3.30;;
3939;SDS011;1984;48.312;9.244;2023-12-07T08:05:09;2.07;;;1.97;;
3939;SDS011;1984;48.312;9.244;2023-12-07T08:07:36;5.93;;;3.53;;
3939;SDS011;1984;48.312;9.244;2023-12-07T08:10:01;4.23;;;3.20;;
3939;SDS011;1984;48.312;9.244;2023-12-07T08:12:28;3.17;;;2.70;;
3939;SDS011;1984;48.312;9.244;2023-12-07T08:14:54;5.10;;;2.50;;
3939;SDS011;1984;48.312;9.244;2023-12-07T08:17:19;2.93;;;2.23;;
3939;SDS011;1984;48.312;9.244;2023-12-07T08:19:46;2.47;;;2.30;;
3939;SDS011;1984;48.312;9.244;2023-12-07T08:22:12;3.93;;;2.63;;
3939;SDS011;1984;48.312;9.244;2023-12-07T08:24:41;3.77;;;2.60;;
3939;SDS011;1984;48.312;9.244;2023-12-07T08:27:06;3.47;;;2.83;;
3939;SDS011;1984;48.312;9.244;2023-12-07T08:29:32;3.53;;;2.60;;
3939;SDS011;1984;48.312;9.244;2023-12-07T08:31:57;4.87;;;3.37;;
3939;SDS011;1984;48.312;9.244;2023-12-07T08:34:23;3.10;;;2.80;;
3939;SDS011;1984;48.312;9.244;2023-12-07T08:36:49;4.20;;;2.90;;
3939;SDS011;1984;48.312;9.244;2023-12-07T08:39:15;4.83;;;3.30;;
3939;SDS011;1984;48.312;9.244;2023-12-07T08:41:40;4.10;;;3.37;;
3939;SDS011;1984;48.312;9.244;2023-12-07T08:44:06;5.10;;;2.60;;
3939;SDS011;1984;48.312;9.244;2023-12-07T08:46:32;3.73;;;3.07;;
3939;SDS011;1984;48.312;9.244;2023-12-07T08:48:57;4.17;;;3.43;;
3939;SDS011;1984;48.312;9.244;2023-12-07T08:51:23;5.23;;;3.50;;
3939;SDS011;1984;48.312;9.244;2023-12-07T08:53:49;2.97;;;2.70;;
3939;SDS011;1984;48.312;9.244;2023-12-07T08:56:14;3.23;;;2.90;;
3939;SDS011;1984;48.312;9.244;2023-12-07T08:58:40;9.87;;;3.03;;
3939;SDS011;1984;48.312;9.244;2023-12-07T09:01:06;4.03;;;2.73;;
3939;SDS011;1984;48.312;9.244;2023-12-07T09:03:31;3.40;;;3.10;;
3939;SDS011;1984;48.312;9.244;2023-12-07T09:05:58;3.60;;;3.00;;
3939;SDS011;1984;48.312;9.244;2023-12-07T09:08:24;6.27;;;3.47;;
3939;SDS011;1984;48.312;9.244;2023-12-07T09:10:50;6.00;;;3.80;;
3939;SDS011;1984;48.312;9.244;2023-12-07T09:13:16;3.97;;;3.60;;
3939;SDS011;1984;48.312;9.244;2023-12-07T09:15:42;3.63;;;3.03;;
3939;SDS011;1984;48.312;9.244;2023-12-07T09:18:07;5.20;;;3.20;;
3939;SDS011;1984;48.312;9.244;2023-12-07T09:20:33;4.50;;;3.57;;
3939;SDS011;1984;48.312;9.244;2023-12-07T09:22:58;5.13;;;3.60;;
3939;SDS011;1984;48.312;9.244;2023-12-07T09:25:24;6.30;;;4.37;;
3939;SDS011;1984;48.312;9.244;2023-12-07T09:27:52;4.90;;;4.00;;
3939;SDS011;1984;48.312;9.244;2023-12-07T09:30:18;5.63;;;4.80;;
3939;SDS011;1984;48.312;9.244;2023-12-07T09:32:44;8.13;;;4.87;;
3939;SDS011;1984;48.312;9.244;2023-12-07T09:35:10;7.90;;;5.70;;
3939;SDS011;1984;48.312;9.244;2023-12-07T09:37:44;11.20;;;7.90;;
3939;SDS011;1984;48.312;9.244;2023-12-07T09:40:14;16.53;;;9.40;;
3939;SDS011;1984;48.312;9.244;2023-12-07T09:42:44;14.23;;;8.30;;
3939;SDS011;1984;48.312;9.244;2023-12-07T09:45:10;10.07;;;6.17;;
3939;SDS011;1984;48.312;9.244;2023-12-07T09:47:37;10.53;;;6.73;;
3939;SDS011;1984;48.312;9.244;2023-12-07T09:50:05;8.73;;;6.50;;
3939;SDS011;1984;48.312;9.244;2023-12-07T09:52:32;15.10;;;8.90;;
3939;SDS011;1984;48.312;9.244;2023-12-07T09:54:57;11.53;;;7.60;;
3939;SDS011;1984;48.312;9.244;2023-12-07T09:57:24;13.47;;;7.40;;
3939;SDS011;1984;48.312;9.244;2023-12-07T09:59:50;9.90;;;7.70;;
3939;SDS011;1984;48.312;9.244;2023-12-07T10:02:15;13.37;;;8.50;;
3939;SDS011;1984;48.312;9.244;2023-12-07T10:04:41;11.30;;;7.10;;
3939;SDS011;1984;48.312;9.244;2023-12-07T10:07:06;8.47;;;5.83;;
3939;SDS011;1984;48.312;9.244;2023-12-07T10:09:38;10.03;;;6.83;;
3939;SDS011;1984;48.312;9.244;2023-12-07T10:12:05;8.43;;;5.77;;
3939;SDS011;1984;48.312;9.244;2023-12-07T10:14:32;7.80;;;5.20;;
3939;SDS011;1984;48.312;9.244;2023-12-07T10:16:58;8.97;;;5.87;;
3939;SDS011;1984;48.312;9.244;2023-12-07T10:19:25;10.17;;;5.70;;
3939;SDS011;1984;48.312;9.244;2023-12-07T10:21:52;8.23;;;6.00;;
3939;SDS011;1984;48.312;9.244;2023-12-07T10:24:19;13.80;;;6.47;;
3939;SDS011;1984;48.312;9.244;2023-12-07T10:26:46;8.13;;;5.47;;
3939;SDS011;1984;48.312;9.244;2023-12-07T10:29:13;9.47;;;5.27;;
3939;SDS011;1984;48.312;9.244;2023-12-07T10:31:39;10.77;;;5.80;;
3939;SDS011;1984;48.312;9.244;2023-12-07T10:34:05;9.93;;;7.10;;
3939;SDS011;1984;48.312;9.244;2023-12-07T10:36:31;10.00;;;6.40;;
3939;SDS011;1984;48.312;9.244;2023-12-07T10:39:00;9.23;;;7.33;;
3939;SDS011;1984;48.312;9.244;2023-12-07T10:41:25;12.27;;;8.30;;
3939;SDS011;1984;48.312;9.244;2023-12-07T10:43:52;12.90;;;7.50;;
3939;SDS011;1984;48.312;9.244;2023-12-07T10:46:31;10.73;;;8.00;;
3939;SDS011;1984;48.312;9.244;2023-12-07T10:49:00;14.33;;;8.57;;
3939;SDS011;1984;48.312;9.244;2023-12-07T10:54:07;13.77;;;9.00;;
3939;SDS011;1984;48.312;9.244;2023-12-07T10:56:43;16.50;;;9.47;;
3939;SDS011;1984;48.312;9.244;2023-12-07T10:59:10;13.53;;;8.57;;
3939;SDS011;1984;48.312;9.244;2023-12-07T11:01:39;14.40;;;8.33;;
3939;SDS011;1984;48.312;9.244;2023-12-07T11:04:07;16.43;;;10.30;;
3939;SDS011;1984;48.312;9.244;2023-12-07T11:06:37;18.27;;;10.20;;
3939;SDS011;1984;48.312;9.244;2023-12-07T11:09:13;21.13;;;11.60;;
3939;SDS011;1984;48.312;9.244;2023-12-07T11:11:49;12.60;;;8.77;;
3939;SDS011;1984;48.312;9.244;2023-12-07T11:14:21;15.17;;;9.00;;
3939;SDS011;1984;48.312;9.244;2023-12-07T11:16:47;16.43;;;9.43;;
3939;SDS011;1984;48.312;9.244;2023-12-07T11:22:09;18.13;;;9.60;;
3939;SDS011;1984;48.312;9.244;2023-12-07T11:24:36;14.80;;;9.83;;
3939;SDS011;1984;48.312;9.244;2023-12-07T11:27:02;12.30;;;9.07;;
3939;SDS011;1984;48.312;9.244;2023-12-07T11:29:28;14.47;;;8.07;;
3939;SDS011;1984;48.312;9.244;2023-12-07T11:32:01;13.27;;;9.20;;
3939;SDS011;1984;48.312;9.244;2023-12-07T11:34:41;9.77;;;6.83;;
3939;SDS011;1984;48.312;9.244;2023-12-07T11:37:07;10.20;;;7.30;;
3939;SDS011;1984;48.312;9.244;2023-12-07T11:39:35;9.57;;;6.37;;
3939;SDS011;1984;48.312;9.244;2023-12-07T11:42:25;7.87;;;5.50;;
3939;SDS011;1984;48.312;9.244;2023-12-07T11:44:51;7.17;;;5.33;;
3939;SDS011;1984;48.312;9.244;2023-12-07T11:47:20;6.80;;;5.47;;
3939;SDS011;1984;48.312;9.244;2023-12-07T11:49:46;8.17;;;5.53;;
3939;SDS011;1984;48.312;9.244;2023-12-07T11:52:18;7.90;;;4.80;;
3939;SDS011;1984;48.312;9.244;2023-12-07T11:54:48;11.73;;;4.53;;
3939;SDS011;1984;48.312;9.244;2023-12-07T11:57:14;7.00;;;3.50;;
3939;SDS011;1984;48.312;9.244;2023-12-07T11:59:44;3.60;;;3.20;;
3939;SDS011;1984;48.312;9.244;2023-12-07T12:02:13;3.80;;;3.37;;
3939;SDS011;1984;48.312;9.244;2023-12-07T12:04:41;3.27;;;2.17;;
3939;SDS011;1984;48.312;9.244;2023-12-07T12:07:07;6.00;;;3.17;;
3939;SDS011;1984;48.312;9.244;2023-12-07T12:09:33;4.10;;;2.87;;
3939;SDS011;1984;48.312;9.244;2023-12-07T12:11:59;2.27;;;2.07;;
3939;SDS011;1984;48.312;9.244;2023-12-07T12:14:25;3.33;;;1.93;;
3939;SDS011;1984;48.312;9.244;2023-12-07T12:16:52;2.00;;;1.47;;
3939;SDS011;1984;48.312;9.244;2023-12-07T12:19:17;6.37;;;1.50;;
3939;SDS011;1984;48.312;9.244;2023-12-07T12:21:43;1.77;;;1.67;;
3939;SDS011;1984;48.312;9.244;2023-12-07T12:24:09;2.30;;;1.60;;
3939;SDS011;1984;48.312;9.244;2023-12-07T12:26:39;1.80;;;1.47;;
3939;SDS011;1984;48.312;9.244;2023-12-07T12:29:06;2.33;;;2.00;;
3939;SDS011;1984;48.312;9.244;2023-12-07T12:31:33;1.93;;;1.60;;
3939;SDS011;1984;48.312;9.244;2023-12-07T12:34:02;2.30;;;1.87;;
3939;SDS011;1984;48.312;9.244;2023-12-07T12:36:30;2.17;;;1.53;;
3939;SDS011;1984;48.312;9.244;2023-12-07T12:38:56;2.13;;;1.93;;
3939;SDS011;1984;48.312;9.244;2023-12-07T12:41:22;1.63;;;1.53;;
3939;SDS011;1984;48.312;9.244;2023-12-07T12:43:48;2.60;;;2.40;;
3939;SDS011;1984;48.312;9.244;2023-12-07T12:46:15;2.50;;;2.07;;
3939;SDS011;1984;48.312;9.244;2023-12-07T12:48:57;2.70;;;1.93;;
3939;SDS011;1984;48.312;9.244;2023-12-07T12:51:23;4.60;;;3.03;;
3939;SDS011;1984;48.312;9.244;2023-12-07T12:53:54;1.83;;;1.67;;
3939;SDS011;1984;48.312;9.244;2023-12-07T12:56:21;1.90;;;1.80;;
3939;SDS011;1984;48.312;9.244;2023-12-07T12:58:50;2.33;;;1.83;;
3939;SDS011;1984;48.312;9.244;2023-12-07T13:01:17;2.73;;;1.90;;
3939;SDS011;1984;48.312;9.244;2023-12-07T13:03:46;4.07;;;2.23;;
3939;SDS011;1984;48.312;9.244;2023-12-07T13:06:12;2.20;;;2.00;;
3939;SDS011;1984;48.312;9.244;2023-12-07T13:08:39;3.87;;;2.50;;
3939;SDS011;1984;48.312;9.244;2023-12-07T13:11:05;6.10;;;3.00;;
3939;SDS011;1984;48.312;9.244;2023-12-07T13:13:31;3.60;;;2.30;;
3939;SDS011;1984;48.312;9.244;2023-12-07T13:15:56;6.20;;;2.63;;
3939;SDS011;1984;48.312;9.244;2023-12-07T13:18:22;3.83;;;2.50;;
3939;SDS011;1984;48.312;9.244;2023-12-07T13:20:48;2.70;;;2.50;;
3939;SDS011;1984;48.312;9.244;2023-12-07T13:23:13;2.03;;;1.93;;
3939;SDS011;1984;48.312;9.244;2023-12-07T13:25:39;4.87;;;2.30;;
3939;SDS011;1984;48.312;9.244;2023-12-07T13:28:06;9.67;;;2.10;;
3939;SDS011;1984;48.312;9.244;2023-12-07T13:30:33;2.20;;;2.03;;
3939;SDS011;1984;48.312;9.244;2023-12-07T13:33:00;5.20;;;2.70;;
3939;SDS011;1984;48.312;9.244;2023-12-07T13:35:26;3.73;;;2.33;;
3939;SDS011;1984;48.312;9.244;2023-12-07T13:37:52;2.47;;;1.83;;
3939;SDS011;1984;48.312;9.244;2023-12-07T13:40:17;1.43;;;1.33;;
3939;SDS011;1984;48.312;9.244;2023-12-07T13:42:42;1.43;;;1.40;;
3939;SDS011;1984;48.312;9.244;2023-12-07T13:45:09;1.33;;;1.23;;
3939;SDS011;1984;48.312;9.244;2023-12-07T13:47:34;7.10;;;2.10;;
3939;SDS011;1984;48.312;9.244;2023-12-07T13:50:02;3.60;;;1.90;;
3939;SDS011;1984;48.312;9.244;2023-12-07T13:52:29;1.83;;;1.70;;
3939;SDS011;1984;48.312;9.244;2023-12-07T13:54:56;1.77;;;1.67;;
3939;SDS011;1984;48.312;9.244;2023-12-07T13:57:22;2.27;;;1.70;;
3939;SDS011;1984;48.312;9.244;2023-12-07T13:59:49;1.27;;;1.27;;
3939;SDS011;1984;48.312;9.244;2023-12-07T14:02:15;4.03;;;1.50;;
3939;SDS011;1984;48.312;9.244;2023-12-07T14:04:41;2.20;;;2.00;;
3939;SDS011;1984;48.312;9.244;2023-12-07T14:07:14;4.30;;;2.63;;
3939;SDS011;1984;48.312;9.244;2023-12-07T14:09:41;2.60;;;2.40;;
3939;SDS011;1984;48.312;9.244;2023-12-07T14:12:11;1.83;;;1.47;;
3939;SDS011;1984;48.312;9.244;2023-12-07T14:14:41;2.77;;;2.30;;
3939;SDS011;1984;48.312;9.244;2023-12-07T14:17:08;19.27;;;5.53;;
3939;SDS011;1984;48.312;9.244;2023-12-07T14:19:33;12.57;;;3.80;;
3939;SDS011;1984;48.312;9.244;2023-12-07T14:22:00;10.73;;;3.10;;
3939;SDS011;1984;48.312;9.244;2023-12-07T14:24:25;11.00;;;2.80;;
3939;SDS011;1984;48.312;9.244;2023-12-07T14:26:51;2.73;;;2.07;;
3939;SDS011;1984;48.312;9.244;2023-12-07T14:29:18;8.53;;;2.70;;
3939;SDS011;1984;48.312;9.244;2023-12-07T14:31:45;3.37;;;2.60;;
3939;SDS011;1984;48.312;9.244;2023-12-07T14:34:13;6.43;;;2.80;;
3939;SDS011;1984;48.312;9.244;2023-12-07T14:36:39;5.73;;;2.73;;
3939;SDS011;1984;48.312;9.244;2023-12-07T14:39:06;3.43;;;2.80;;
3939;SDS011;1984;48.312;9.244;2023-12-07T14:41:32;8.20;;;3.40;;
3939;SDS011;1984;48.312;9.244;2023-12-07T14:43:58;5.17;;;3.83;;
3939;SDS011;1984;48.312;9.244;2023-12-07T14:46:24;21.83;;;9.83;;
3939;SDS011;1984;48.312;9.244;2023-12-07T14:48:49;18.90;;;9.50;;
3939;SDS011;1984;48.312;9.244;2023-12-07T14:51:18;8.23;;;3.77;;
3939;SDS011;1984;48.312;9.244;2023-12-07T14:53:47;4.33;;;3.33;;
3939;SDS011;1984;48.312;9.244;2023-12-07T14:56:13;5.87;;;3.07;;
3939;SDS011;1984;48.312;9.244;2023-12-07T14:58:39;4.20;;;3.37;;
3939;SDS011;1984;48.312;9.244;2023-12-07T15:01:07;3.97;;;3.50;;
3939;SDS011;1984;48.312;9.244;2023-12-07T15:03:33;10.93;;;3.67;;
3939;SDS011;1984;48.312;9.244;2023-12-07T15:05:59;4.70;;;3.47;;
3939;SDS011;1984;48.312;9.244;2023-12-07T15:08:26;7.07;;;4.17;;
3939;SDS011;1984;48.312;9.244;2023-12-07T15:10:51;7.93;;;3.50;;
3939;SDS011;1984;48.312;9.244;2023-12-07T15:13:19;5.83;;;3.67;;